Погода Будовона неделю

Поморское воеводство, Польша

15 - 21 июля
  • 15июля
    Сегодня
    +16°
    +25°
    Ясно и безоблачно
    ВремяПогодаТемператураВлажностьДавлениеВетер, м/сВероятность осадков
    02:00Облачно с прояснениями+15°C94 %747 мм2.3 м/с2 %
    05:00Практически безоблачно+14°C95 %747 мм2.3 м/с2 %
    08:00Ясно и безоблачно+19°C86 %748 мм2.2 м/с2 %
    11:00Практически безоблачно+23°C54 %747 мм3.2 м/с2 %
    14:00Ясно и безоблачно+25°C50 %747 мм3.6 м/с2 %
    17:00Практически безоблачно+24°C51 %747 мм3.3 м/с6 %
    20:00Облачно с прояснениями+23°C70 %746 мм1.4 м/с8 %
    23:00Ясно и безоблачно+19°C71 %746 мм3.6 м/с2 %
  • 16июля
    Вторник
    +16°
    +27°
    Облачно с прояснениями
    ВремяПогодаТемператураВлажностьДавлениеВетер, м/сВероятность осадков
    02:00Ясно и безоблачно+18°C76 %746 мм3.9 м/с2 %
    05:00Облачно с прояснениями+17°C79 %746 мм4.1 м/с2 %
    08:00Небольшая облачность+22°C75 %746 мм4.5 м/с2 %
    11:00Облачно с прояснениями+26°C64 %745 мм5.1 м/с1 %
    14:00Облачно с прояснениями+26°C60 %744 мм3.8 м/с34 %
    17:00Пасмурно, дожди с грозами+23°C73 %743 мм2.2 м/с86 %
    20:00Небольшая облачность, ливень+21°C92 %744 мм1.9 м/с87 %
    23:00Практически безоблачно+18°C96 %744 мм3.8 м/с46 %
  • 17июля
    Среда
    +13°
    +23°
    Облачно с прояснениями
    ВремяПогодаТемператураВлажностьДавлениеВетер, м/сВероятность осадков
    02:00Ясно и безоблачно+17°C96 %745 мм3.1 м/с7 %
    05:00Ясно и безоблачно+16°C95 %746 мм2.8 м/с2 %
    08:00Ясно и безоблачно+19°C82 %747 мм4.1 м/с2 %
    11:00Практически безоблачно+22°C64 %748 мм5.5 м/с13 %
    14:00Облачно с прояснениями+23°C54 %749 мм7.2 м/с23 %
    17:00Облачно с прояснениями+21°C58 %749 мм6.3 м/с32 %
    20:00Ясно и безоблачно+20°C71 %750 мм3.5 м/с14 %
    23:00Ясно и безоблачно+16°C83 %751 мм2.7 м/с2 %
  • 18июля
    Четверг
    +12°
    +23°
    Облачно с прояснениями
    ВремяПогодаТемператураВлажностьДавлениеВетер, м/сВероятность осадков
    02:00Ясно и безоблачно+15°C90 %751 мм2.9 м/с2 %
    05:00Ясно и безоблачно+14°C94 %751 мм2.9 м/с2 %
    08:00Практически безоблачно+17°C81 %752 мм4.6 м/с8 %
    11:00Практически безоблачно+20°C68 %752 мм3.6 м/с28 %
    14:00Облачно с прояснениями+22°C55 %752 мм5.0 м/с23 %
    17:00Облачно с прояснениями+20°C65 %752 мм4.5 м/с14 %
    20:00Облачно с прояснениями+19°C75 %752 мм1.8 м/с3 %
    23:00Облачно с прояснениями+15°C91 %752 мм1.8 м/с2 %
  • 19июля
    Пятница
    +11°
    +23°
    Небольшая облачность
    ВремяПогодаТемператураВлажностьДавлениеВетер, м/сВероятность осадков
    02:00Ясно и безоблачно+14°C91 %752 мм2.4 м/с2 %
    05:00Ясно и безоблачно+13°C93 %752 мм2.1 м/с2 %
    08:00Ясно и безоблачно+17°C80 %752 мм2.7 м/с2 %
    11:00Практически безоблачно+21°C60 %752 мм3.5 м/с10 %
    14:00Небольшая облачность+23°C51 %752 мм4.0 м/с19 %
    17:00Ясно и безоблачно+21°C56 %751 мм3.3 м/с14 %
    20:00Практически безоблачно+19°C71 %750 мм1.3 м/с3 %
    23:00Ясно и безоблачно+16°C81 %749 мм1.3 м/с2 %
Мы используем cookies
Соглашаюсь